Time;durP1;ratioP1;P1;durP2;ratioP2;P2;SDS_P1;SDS_P2;PMS_P1;PMS_P2;Temp;Humidity;BMP_temperature;BMP_pressure;BME280_temperature;BME280_humidity;BME280_pressure;Samples;Min_cycle;Max_cycle;Signal;HPM_P1;HPM_P2
2022/05/10 00:00:06;;;;;;;5.25;2.90;;;13.70;99.90;;;;;;4940289;29;20193;-89
2022/05/10 00:02:33;;;;;;;5.97;2.75;;;13.60;99.90;;;;;;4940131;29;20261;-87
2022/05/10 00:04:59;;;;;;;4.22;2.60;;;13.60;99.90;;;;;;4940296;29;20178;-89
2022/05/10 00:07:27;;;;;;;6.72;2.85;;;13.50;99.90;;;;;;4939933;29;20182;-87
2022/05/10 00:09:53;;;;;;;5.25;2.60;;;13.50;99.90;;;;;;4940055;29;20184;-86
2022/05/10 00:12:19;;;;;;;3.55;2.60;;;13.50;99.90;;;;;;4941250;29;20277;-87
2022/05/10 00:14:45;;;;;;;6.53;3.00;;;13.50;99.90;;;;;;4939788;29;20222;-86
2022/05/10 00:17:32;;;;;;;5.25;3.13;;;13.50;99.90;;;;;;4939678;29;20190;-87
2022/05/10 00:19:58;;;;;;;5.10;2.95;;;13.50;99.90;;;;;;4939979;29;20582;-86
2022/05/10 00:22:24;;;;;;;3.90;2.55;;;13.40;99.90;;;;;;4939411;28;20213;-87
2022/05/10 00:24:50;;;;;;;5.15;2.75;;;13.40;99.90;;;;;;4939973;28;20213;-87
2022/05/10 00:27:17;;;;;;;11.52;2.95;;;13.40;99.90;;;;;;4939786;28;20200;-86
2022/05/10 00:29:43;;;;;;;3.80;2.70;;;13.30;99.90;;;;;;4940631;29;20178;-87
2022/05/10 00:32:11;;;;;;;8.18;3.00;;;13.30;99.90;;;;;;4939650;28;20269;-87
2022/05/10 00:34:36;;;;;;;6.68;3.08;;;13.30;99.90;;;;;;4939140;29;20237;-87
2022/05/10 00:37:03;;;;;;;7.82;2.90;;;13.30;99.90;;;;;;4940280;28;20182;-86
2022/05/10 00:39:28;;;;;;;5.30;3.08;;;13.20;99.90;;;;;;4939455;28;20315;-86
2022/05/10 00:42:27;;;;;;;4.95;2.75;;;13.10;99.90;;;;;;4955352;28;20204;-87
2022/05/10 00:45:08;;;;;;;4.15;2.70;;;13.10;99.90;;;;;;4940588;28;20214;-87
2022/05/10 00:47:51;;;;;;;5.43;2.97;;;13.20;99.90;;;;;;4939527;28;20330;-86
2022/05/10 00:50:24;;;;;;;4.82;2.92;;;13.20;99.90;;;;;;4939239;29;20229;-87
2022/05/10 00:52:59;;;;;;;6.97;3.03;;;13.10;99.90;;;;;;4939147;28;20185;-87
2022/05/10 00:55:50;;;;;;;4.45;2.78;;;13.10;99.90;;;;;;4939140;29;20326;-85
2022/05/10 00:58:40;;;;;;;3.95;2.70;;;13.10;99.90;;;;;;4939099;28;20182;-87
2022/05/10 01:01:08;;;;;;;6.63;2.90;;;13.00;99.90;;;;;;4938910;28;20215;-86
2022/05/10 01:03:37;;;;;;;4.40;2.70;;;13.00;99.90;;;;;;4939269;29;20174;-86
2022/05/10 01:06:18;;;;;;;7.70;3.17;;;13.00;99.90;;;;;;4939003;29;20189;-86
2022/05/10 01:09:06;;;;;;;4.43;3.00;;;12.90;99.90;;;;;;4939893;29;20201;-87
2022/05/10 01:12:02;;;;;;;7.50;2.88;;;12.90;99.90;;;;;;4939003;28;20178;-87
2022/05/10 01:14:35;;;;;;;5.88;3.00;;;12.80;99.90;;;;;;4939015;28;20594;-87
2022/05/10 01:17:01;;;;;;;6.93;3.38;;;12.80;99.90;;;;;;4938139;28;20186;-86
2022/05/10 01:19:27;;;;;;;5.25;3.08;;;12.80;99.90;;;;;;4938600;28;20587;-88
2022/05/10 01:21:55;;;;;;;5.03;2.78;;;12.80;99.90;;;;;;4938391;28;20241;-88
2022/05/10 01:24:26;;;;;;;6.47;3.05;;;12.60;99.90;;;;;;4954768;28;20172;-88
2022/05/10 01:27:19;;;;;;;6.45;3.28;;;12.50;99.90;;;;;;4954633;28;20178;-86
2022/05/10 01:30:03;;;;;;;7.43;3.40;;;12.60;99.90;;;;;;4938617;28;20175;-86
2022/05/10 01:35:39;;;;;;;5.13;2.83;;;12.60;99.90;;;;;;4939823;29;20639;-86
2022/05/10 01:38:16;;;;;;;7.25;3.33;;;12.60;99.90;;;;;;4938238;29;20182;-86
2022/05/10 01:40:48;;;;;;;5.15;3.08;;;12.60;99.90;;;;;;4938498;28;20233;-85
2022/05/10 01:43:54;;;;;;;6.60;3.55;;;12.60;99.90;;;;;;4938437;28;20170;-86
2022/05/10 01:46:27;;;;;;;4.93;3.00;;;12.60;99.90;;;;;;4938129;28;20204;-88
2022/05/10 01:49:22;;;;;;;9.75;2.97;;;12.60;99.90;;;;;;4938489;28;20272;-89
2022/05/10 01:52:20;;;;;;;5.00;2.90;;;12.50;99.90;;;;;;4938664;29;20236;-86
2022/05/10 01:55:17;;;;;;;4.18;2.80;;;12.50;99.90;;;;;;4953956;28;20671;-86
2022/05/10 01:57:43;;;;;;;6.05;3.15;;;12.50;99.90;;;;;;4938222;28;20210;-87
2022/05/10 02:00:21;;;;;;;5.20;2.88;;;12.50;99.90;;;;;;4938046;28;20513;-86
2022/05/10 02:03:11;;;;;;;5.03;3.05;;;12.40;99.90;;;;;;4939111;29;20508;-84
2022/05/10 02:05:47;;;;;;;4.72;3.38;;;12.40;99.90;;;;;;4937228;29;20194;-86
2022/05/10 02:08:38;;;;;;;4.97;3.33;;;12.40;99.90;;;;;;4937584;28;20216;-86
2022/05/10 02:11:15;;;;;;;6.28;3.38;;;12.30;99.90;;;;;;4937541;28;20496;-86
2022/05/10 02:14:06;;;;;;;7.88;3.20;;;12.20;99.90;;;;;;4938249;29;20241;-86
2022/05/10 02:16:50;;;;;;;5.90;3.20;;;12.10;99.90;;;;;;4937904;29;20193;-86
2022/05/10 02:19:33;;;;;;;5.60;3.33;;;12.10;99.90;;;;;;4953855;28;20178;-86
2022/05/10 02:22:25;;;;;;;5.43;3.35;;;12.10;99.90;;;;;;4937655;29;20170;-85
2022/05/10 02:24:58;;;;;;;10.18;3.80;;;12.10;99.90;;;;;;4940738;28;20200;-88
2022/05/10 02:27:57;;;;;;;5.47;3.50;;;12.20;99.90;;;;;;4937711;29;20629;-86
2022/05/10 02:30:27;;;;;;;7.32;4.30;;;12.00;99.90;;;;;;4937145;29;20744;-87
2022/05/10 02:33:06;;;;;;;7.28;3.30;;;11.90;99.90;;;;;;4937460;29;20633;-87
2022/05/10 02:35:42;;;;;;;6.50;3.38;;;12.00;99.90;;;;;;4937441;29;20517;-85
2022/05/10 02:38:10;;;;;;;6.18;3.42;;;12.00;99.90;;;;;;4953418;29;20170;-86
2022/05/10 02:40:41;;;;;;;3.85;3.08;;;11.90;99.90;;;;;;4937214;29;20584;-86
2022/05/10 02:43:16;;;;;;;5.20;3.15;;;11.90;99.90;;;;;;4937272;29;20174;-86
2022/05/10 02:45:43;;;;;;;6.63;3.50;;;11.80;99.90;;;;;;4937091;29;20170;-85
2022/05/10 02:48:32;;;;;;;6.35;3.33;;;11.80;99.90;;;;;;4938275;29;20609;-86
2022/05/10 02:50:58;;;;;;;5.78;3.38;;;11.80;99.90;;;;;;4940156;28;20205;-86
2022/05/10 02:53:25;;;;;;;6.97;3.67;;;11.60;99.90;;;;;;4936690;29;20190;-86
2022/05/10 02:56:04;;;;;;;11.27;3.50;;;11.50;99.90;;;;;;4937196;29;20597;-88
2022/05/10 02:58:53;;;;;;;6.40;3.83;;;11.60;99.90;;;;;;4937085;29;20269;-87
2022/05/10 03:01:45;;;;;;;6.38;3.15;;;11.50;99.90;;;;;;4953257;28;20174;-88
2022/05/10 03:04:12;;;;;;;5.95;3.22;;;11.50;99.90;;;;;;4952991;28;20188;-87
2022/05/10 03:06:39;;;;;;;7.78;2.95;;;11.60;99.90;;;;;;4938373;29;20174;-88
2022/05/10 03:09:06;;;;;;;9.07;3.20;;;11.50;99.90;;;;;;4936649;29;20205;-88
2022/05/10 03:11:32;;;;;;;6.25;3.47;;;11.50;99.90;;;;;;4936926;29;20591;-89
2022/05/10 03:13:59;;;;;;;6.50;3.65;;;11.40;99.90;;;;;;4937148;29;20517;-88
2022/05/10 03:16:26;;;;;;;7.82;3.45;;;11.50;99.90;;;;;;4937014;29;20215;-87
2022/05/10 03:18:53;;;;;;;5.30;3.73;;;11.60;99.90;;;;;;4936687;28;20189;-87
2022/05/10 03:21:20;;;;;;;5.38;3.30;;;11.60;99.90;;;;;;4936903;28;20185;-86
2022/05/10 03:23:47;;;;;;;8.75;3.88;;;11.40;99.90;;;;;;4935847;29;20503;-88
2022/05/10 03:26:16;;;;;;;5.43;3.27;;;11.50;99.90;;;;;;4936747;28;20174;-86
2022/05/10 03:28:44;;;;;;;6.37;3.67;;;11.50;99.90;;;;;;4936697;28;20190;-88
2022/05/10 03:31:13;;;;;;;7.60;3.85;;;11.40;99.90;;;;;;4936528;28;20186;-87
2022/05/10 03:33:39;;;;;;;5.35;3.53;;;11.40;99.90;;;;;;4936999;29;20228;-86
2022/05/10 03:36:06;;;;;;;7.17;3.37;;;11.50;99.90;;;;;;4936900;29;20178;-86
2022/05/10 03:38:32;;;;;;;5.75;3.17;;;11.50;99.90;;;;;;4936531;29;20186;-88
2022/05/10 03:40:58;;;;;;;6.38;3.50;;;11.40;99.90;;;;;;4936678;29;20241;-87
2022/05/10 03:43:27;;;;;;;9.20;3.93;;;11.40;99.90;;;;;;4936087;29;20193;-87
2022/05/10 03:45:53;;;;;;;9.97;3.77;;;11.30;99.90;;;;;;4936481;28;20186;-88
2022/05/10 03:48:19;;;;;;;10.65;4.18;;;11.30;99.90;;;;;;4936547;28;20242;-89
2022/05/10 03:50:44;;;;;;;5.88;3.55;;;11.40;99.90;;;;;;4936448;28;20229;-87
2022/05/10 03:53:10;;;;;;;5.45;3.42;;;11.40;99.90;;;;;;4936197;28;20185;-89
2022/05/10 03:55:36;;;;;;;8.33;4.20;;;11.40;99.90;;;;;;4936603;28;20178;-87
2022/05/10 03:58:04;;;;;;;7.17;3.47;;;11.40;99.90;;;;;;4936338;29;20181;-87
2022/05/10 04:00:30;;;;;;;6.83;3.83;;;11.50;99.90;;;;;;4936615;28;20574;-88
2022/05/10 04:02:57;;;;;;;6.20;3.50;;;11.50;99.90;;;;;;4936412;29;20737;-87
2022/05/10 04:05:25;;;;;;;7.60;4.00;;;11.50;99.90;;;;;;4936510;28;20202;-89
2022/05/10 04:07:51;;;;;;;6.25;3.72;;;11.50;99.90;;;;;;4936263;28;20697;-88
2022/05/10 04:10:18;;;;;;;6.70;3.88;;;11.50;99.90;;;;;;4936484;28;20218;-88
2022/05/10 04:12:44;;;;;;;10.27;4.10;;;11.50;99.90;;;;;;4936519;28;20185;-89
2022/05/10 04:15:14;;;;;;;6.73;3.70;;;11.50;99.90;;;;;;4936343;29;20213;-87
2022/05/10 04:17:42;;;;;;;9.85;4.15;;;11.40;99.90;;;;;;4936526;28;20189;-87
2022/05/10 04:20:09;;;;;;;8.38;4.53;;;11.40;99.90;;;;;;4936314;28;20189;-87
2022/05/10 04:22:36;;;;;;;6.82;4.40;;;11.50;99.90;;;;;;4936104;29;20206;-87
2022/05/10 04:25:02;;;;;;;5.82;3.83;;;11.40;99.90;;;;;;4936359;28;20635;-86
2022/05/10 04:27:28;;;;;;;7.25;4.03;;;11.40;99.90;;;;;;4936317;28;20241;-87
2022/05/10 04:29:53;;;;;;;8.43;3.67;;;11.40;99.90;;;;;;4936013;28;20182;-86
2022/05/10 04:32:20;;;;;;;9.07;3.38;;;11.50;99.90;;;;;;4936336;28;20186;-87
2022/05/10 04:34:46;;;;;;;5.05;3.45;;;11.50;99.90;;;;;;4936394;28;20220;-87
2022/05/10 04:37:12;;;;;;;8.05;3.67;;;11.60;99.90;;;;;;4939551;29;20189;-86
2022/05/10 04:42:21;;;;;;;6.38;4.25;;;11.70;99.90;;;;;;4941167;29;20214;-87
2022/05/10 04:44:47;;;;;;;13.30;4.60;;;11.70;99.90;;;;;;4939482;28;20182;-87
2022/05/10 04:47:13;;;;;;;12.50;4.57;;;11.70;99.90;;;;;;4939675;28;20248;-87
2022/05/10 04:49:38;;;;;;;7.55;4.60;;;11.90;99.90;;;;;;4939177;28;20229;-86
2022/05/10 04:52:04;;;;;;;16.05;4.22;;;11.90;99.90;;;;;;4939699;28;20181;-87
2022/05/10 04:54:30;;;;;;;9.30;4.38;;;12.00;99.90;;;;;;4939188;28;20353;-86
2022/05/10 04:56:56;;;;;;;7.07;3.85;;;12.10;99.90;;;;;;4939465;28;20174;-87
2022/05/10 04:59:21;;;;;;;7.28;3.60;;;12.10;99.90;;;;;;4939291;28;20178;-87
2022/05/10 05:01:47;;;;;;;7.63;3.85;;;12.20;99.90;;;;;;4939120;28;20226;-87
2022/05/10 05:04:13;;;;;;;7.13;3.67;;;12.30;99.90;;;;;;4939008;28;20186;-87
2022/05/10 05:06:40;;;;;;;6.60;3.63;;;12.40;99.90;;;;;;4928313;29;20638;-87
2022/05/10 05:09:06;;;;;;;6.82;3.80;;;12.60;99.90;;;;;;4919939;29;20197;-87
2022/05/10 05:11:32;;;;;;;5.65;3.92;;;12.70;99.90;;;;;;4919905;29;20178;-87
2022/05/10 05:13:58;;;;;;;11.90;4.95;;;12.80;99.90;;;;;;4920031;29;20217;-87
2022/05/10 05:16:24;;;;;;;7.13;3.95;;;12.90;99.90;;;;;;4927830;29;20186;-87
2022/05/10 05:18:50;;;;;;;8.68;3.75;;;13.00;99.90;;;;;;4938689;29;20214;-87
2022/05/10 05:21:17;;;;;;;10.52;4.70;;;13.20;99.90;;;;;;4938658;29;20257;-84
2022/05/10 05:23:43;;;;;;;9.43;4.03;;;13.30;99.90;;;;;;4939706;29;20174;-85
2022/05/10 05:26:10;;;;;;;6.13;4.13;;;13.40;99.90;;;;;;4938784;29;20193;-85
2022/05/10 05:28:36;;;;;;;8.57;4.85;;;13.50;99.90;;;;;;4939801;29;20265;-85
2022/05/10 05:31:02;;;;;;;9.38;4.40;;;13.60;99.90;;;;;;4938951;29;20214;-86
2022/05/10 05:33:28;;;;;;;6.82;4.07;;;13.70;99.90;;;;;;4938348;29;20189;-84
2022/05/10 05:35:53;;;;;;;8.45;4.13;;;13.80;99.90;;;;;;4938723;29;20170;-84
2022/05/10 05:38:19;;;;;;;7.18;3.60;;;13.80;99.90;;;;;;4938498;29;20182;-87
2022/05/10 05:40:45;;;;;;;6.03;3.50;;;13.80;99.90;;;;;;4938857;29;20182;-87
2022/05/10 05:43:17;;;;;;;7.60;4.07;;;13.90;99.90;;;;;;4938377;29;20174;-85
2022/05/10 05:45:43;;;;;;;6.53;3.97;;;13.90;99.90;;;;;;4938514;29;20177;-85
2022/05/10 05:48:09;;;;;;;15.32;4.20;;;14.00;99.90;;;;;;4937381;29;20241;-86
2022/05/10 05:50:35;;;;;;;7.07;4.57;;;14.00;99.90;;;;;;4938140;29;20233;-85
2022/05/10 05:53:01;;;;;;;7.03;4.35;;;14.00;99.90;;;;;;4937934;28;20189;-85
2022/05/10 05:55:27;;;;;;;8.75;4.63;;;14.00;99.90;;;;;;4939489;29;20238;-87
2022/05/10 05:57:52;;;;;;;7.95;4.53;;;14.00;99.90;;;;;;4938356;29;20545;-85
2022/05/10 06:00:21;;;;;;;7.38;4.60;;;14.10;99.90;;;;;;4938231;29;20186;-85
2022/05/10 06:02:47;;;;;;;6.70;4.13;;;14.20;99.90;;;;;;4938022;29;20178;-85
2022/05/10 06:05:13;;;;;;;7.15;4.10;;;14.30;99.90;;;;;;4938181;29;20316;-85
2022/05/10 06:07:39;;;;;;;12.10;4.53;;;14.30;99.90;;;;;;4937742;29;20182;-85
2022/05/10 06:10:06;;;;;;;11.55;5.30;;;14.50;99.90;;;;;;4938017;29;20190;-85
2022/05/10 06:12:32;;;;;;;10.43;4.50;;;14.60;99.90;;;;;;4938023;29;20264;-86
2022/05/10 06:15:00;;;;;;;9.27;4.60;;;14.70;99.90;;;;;;4938183;29;20321;-85
2022/05/10 06:17:25;;;;;;;11.98;4.93;;;14.80;99.90;;;;;;4937918;29;20687;-86
2022/05/10 06:19:51;;;;;;;7.55;4.07;;;15.00;99.90;;;;;;4937973;29;20185;-86
2022/05/10 06:22:17;;;;;;;6.40;3.88;;;15.10;99.90;;;;;;4937821;29;20679;-85
2022/05/10 06:24:42;;;;;;;7.90;3.92;;;15.20;99.90;;;;;;4937701;29;20178;-85
2022/05/10 06:27:13;;;;;;;10.80;4.50;;;15.30;99.90;;;;;;4937824;29;20170;-86
2022/05/10 06:29:39;;;;;;;7.10;3.75;;;15.40;99.90;;;;;;4937581;29;20601;-86
2022/05/10 06:32:05;;;;;;;8.38;3.35;;;15.60;99.90;;;;;;4937491;29;20228;-86
2022/05/10 06:34:31;;;;;;;9.43;3.78;;;15.80;99.90;;;;;;4937630;29;20217;-86
2022/05/10 06:36:56;;;;;;;8.82;3.33;;;16.00;99.90;;;;;;4937773;29;20178;-86
2022/05/10 06:39:22;;;;;;;10.63;3.95;;;16.10;99.90;;;;;;4937362;29;20186;-85
2022/05/10 06:41:48;;;;;;;4.60;2.92;;;16.30;99.90;;;;;;4937370;29;20622;-86
2022/05/10 06:44:13;;;;;;;7.45;3.03;;;16.40;99.90;;;;;;4937352;29;20684;-87
2022/05/10 06:46:39;;;;;;;6.15;2.90;;;16.50;99.90;;;;;;4932396;29;20191;-86
2022/05/10 06:49:05;;;;;;;7.63;2.45;;;16.50;99.90;;;;;;4917884;29;20258;-86
2022/05/10 06:51:32;;;;;;;7.65;2.80;;;16.60;99.90;;;;;;4918472;29;20190;-85
2022/05/10 06:53:59;;;;;;;6.38;3.10;;;16.70;99.90;;;;;;4918120;29;20210;-86
2022/05/10 06:56:25;;;;;;;4.20;3.10;;;16.70;99.90;;;;;;4918289;29;20179;-86
2022/05/10 06:58:51;;;;;;;7.75;3.10;;;16.70;99.90;;;;;;4917826;29;20697;-83
2022/05/10 07:01:16;;;;;;;8.93;3.10;;;16.80;99.90;;;;;;4918068;29;20193;-86
2022/05/10 07:03:51;;;;;;;5.57;3.00;;;16.70;99.90;;;;;;4918100;29;20186;-85
2022/05/10 07:06:23;;;;;;;5.85;2.70;;;16.80;99.90;;;;;;4918059;29;20605;-85
2022/05/10 07:08:48;;;;;;;5.30;2.92;;;16.80;99.90;;;;;;4917696;29;20179;-86
2022/05/10 07:11:14;;;;;;;4.30;2.72;;;16.90;99.90;;;;;;4917979;29;20186;-84
2022/05/10 07:13:40;;;;;;;7.95;2.90;;;17.00;99.90;;;;;;4917651;29;20214;-86
2022/05/10 07:16:06;;;;;;;6.72;2.97;;;17.20;99.90;;;;;;4930387;29;20192;-83
2022/05/10 07:18:32;;;;;;;7.60;3.00;;;17.30;99.90;;;;;;4955846;29;20201;-86
2022/05/10 07:20:57;;;;;;;6.03;2.80;;;17.40;99.90;;;;;;4956044;28;20273;-86
2022/05/10 07:23:27;;;;;;;5.10;2.83;;;17.50;99.90;;;;;;4955689;29;20178;-86
2022/05/10 07:25:55;;;;;;;12.02;3.38;;;17.70;99.90;;;;;;4956323;29;20176;-86
2022/05/10 07:28:20;;;;;;;9.20;3.15;;;17.90;99.90;;;;;;4956888;29;20225;-85
2022/05/10 07:30:46;;;;;;;7.55;2.80;;;18.00;99.90;;;;;;4948616;28;20186;-85
2022/05/10 07:33:13;;;;;;;5.57;3.40;;;18.20;99.90;;;;;;4936029;28;20178;-83
2022/05/10 07:38:23;;;;;;;8.98;3.58;;;18.50;99.90;;;;;;4937431;29;20189;-87
2022/05/10 07:40:50;;;;;;;7.00;3.10;;;18.60;99.90;;;;;;4936416;28;20672;-87
2022/05/10 07:43:18;;;;;;;5.75;2.92;;;18.70;99.90;;;;;;4936862;28;20182;-85
2022/05/10 07:45:46;;;;;;;8.23;3.13;;;18.80;99.90;;;;;;4936124;28;20254;-85
2022/05/10 07:48:12;;;;;;;7.00;3.08;;;18.90;99.90;;;;;;4936681;29;20170;-86
2022/05/10 07:50:38;;;;;;;8.15;3.25;;;19.00;99.90;;;;;;4936462;29;20256;-86
2022/05/10 07:53:06;;;;;;;8.13;2.92;;;19.10;99.90;;;;;;4936221;29;20178;-85
2022/05/10 07:55:34;;;;;;;6.93;3.28;;;19.20;99.90;;;;;;4936504;29;20214;-88
2022/05/10 07:57:59;;;;;;;7.50;3.00;;;19.30;99.90;;;;;;4936624;29;20242;-86
2022/05/10 08:00:25;;;;;;;6.43;3.10;;;19.40;99.90;;;;;;4936498;29;20189;-85
2022/05/10 08:02:51;;;;;;;6.70;2.80;;;19.40;99.90;;;;;;4936636;29;20586;-87
2022/05/10 08:05:21;;;;;;;6.40;2.88;;;19.50;99.90;;;;;;4936577;29;20617;-88
2022/05/10 08:07:48;;;;;;;5.03;2.83;;;19.70;99.90;;;;;;4936108;29;20174;-87
2022/05/10 08:10:15;;;;;;;5.65;3.00;;;19.80;99.90;;;;;;4936699;29;20182;-87
2022/05/10 08:12:41;;;;;;;4.60;2.50;;;19.90;99.90;;;;;;4940924;29;20632;-86
2022/05/10 08:15:08;;;;;;;4.28;3.03;;;20.10;99.90;;;;;;4940030;29;20260;-86
2022/05/10 08:17:34;;;;;;;6.30;2.53;;;20.20;99.90;;;;;;4940134;29;20190;-89
2022/05/10 08:20:00;;;;;;;7.15;2.53;;;20.40;99.90;;;;;;4939898;28;20192;-88
2022/05/10 08:22:25;;;;;;;5.75;2.90;;;20.60;99.50;;;;;;4939954;28;20182;-87
2022/05/10 08:24:51;;;;;;;4.78;2.65;;;20.60;99.60;;;;;;4939833;28;20186;-86
2022/05/10 08:27:17;;;;;;;8.50;2.70;;;20.70;99.10;;;;;;4939884;29;20174;-88
2022/05/10 08:29:43;;;;;;;6.97;2.35;;;20.80;99.90;;;;;;4939929;28;20193;-86
2022/05/10 08:32:09;;;;;;;5.03;2.78;;;21.00;99.90;;;;;;4940810;29;20178;-85
2022/05/10 08:34:36;;;;;;;4.70;2.45;;;20.90;98.50;;;;;;4939732;28;20214;-88
2022/05/10 08:37:03;;;;;;;5.90;2.80;;;20.80;99.00;;;;;;4924196;29;20520;-87
2022/05/10 08:39:28;;;;;;;8.93;3.20;;;20.80;99.60;;;;;;4939746;28;20255;-87
2022/05/10 08:42:16;;;;;;;14.77;3.25;;;20.80;99.70;;;;;;4939775;29;20260;-87
2022/05/10 08:44:52;;;;;;;12.52;3.35;;;20.80;99.30;;;;;;4939685;28;20721;-87
2022/05/10 08:47:17;;;;;;;9.73;2.70;;;20.90;99.90;;;;;;4940881;29;20181;-87
2022/05/10 08:50:05;;;;;;;9.63;2.72;;;20.80;98.90;;;;;;4939355;29;20238;-85
2022/05/10 08:52:35;;;;;;;7.55;2.53;;;20.90;98.20;;;;;;4939354;29;20181;-86
2022/05/10 08:55:02;;;;;;;7.55;2.60;;;20.90;99.30;;;;;;4939204;29;20221;-88
2022/05/10 08:57:50;;;;;;;8.70;2.80;;;21.10;99.90;;;;;;4939456;29;20206;-87
2022/05/10 09:00:37;;;;;;;5.75;2.45;;;21.20;99.50;;;;;;4939399;29;20170;-86
2022/05/10 09:03:17;;;;;;;4.53;2.47;;;21.20;99.10;;;;;;4955485;28;20177;-87
2022/05/10 09:05:45;;;;;;;6.97;2.75;;;21.20;99.10;;;;;;4955486;28;20178;-87
2022/05/10 09:08:31;;;;;;;5.00;2.63;;;21.10;98.70;;;;;;4939988;29;20166;-88
2022/05/10 09:11:04;;;;;;;7.25;2.80;;;21.10;98.90;;;;;;4939202;29;20173;-87
2022/05/10 09:13:30;;;;;;;3.65;2.60;;;21.20;99.10;;;;;;4939106;29;20609;-87
2022/05/10 09:15:57;;;;;;;5.20;2.53;;;21.20;99.00;;;;;;4940224;29;20178;-88
2022/05/10 09:18:45;;;;;;;3.45;2.60;;;21.20;98.90;;;;;;4939026;29;20208;-86
2022/05/10 09:21:19;;;;;;;6.93;2.42;;;21.10;99.40;;;;;;4938589;29;20196;-87
2022/05/10 09:24:08;;;;;;;8.15;2.65;;;21.20;99.10;;;;;;4938646;29;20257;-86
2022/05/10 09:26:40;;;;;;;6.93;2.45;;;21.30;99.30;;;;;;4940035;29;20167;-88
2022/05/10 09:29:27;;;;;;;3.92;2.38;;;21.50;99.30;;;;;;4938650;29;20170;-85
2022/05/10 09:34:47;;;;;;;7.38;3.00;;;21.60;97.40;;;;;;4940073;29;20217;-88
2022/05/10 09:37:37;;;;;;;6.53;2.75;;;21.90;98.90;;;;;;4938824;29;20558;-87
2022/05/10 09:40:39;;;;;;;4.20;2.40;;;22.30;97.80;;;;;;4938173;29;20194;-86
2022/05/10 09:43:32;;;;;;;7.90;2.80;;;22.50;97.30;;;;;;4938122;29;20244;-86
2022/05/10 09:46:19;;;;;;;4.63;2.42;;;22.60;96.30;;;;;;4938354;29;20178;-89
2022/05/10 09:48:46;;;;;;;3.88;2.50;;;22.70;96.30;;;;;;4938392;29;20225;-86
2022/05/10 09:51:35;;;;;;;4.63;2.60;;;22.90;96.20;;;;;;4939525;29;20177;-87
2022/05/10 09:54:04;;;;;;;6.07;2.47;;;23.10;96.60;;;;;;4937998;29;20213;-86
2022/05/10 09:56:44;;;;;;;5.07;2.50;;;23.10;94.90;;;;;;4939449;29;20186;-87
2022/05/10 09:59:18;;;;;;;6.25;2.90;;;23.00;94.90;;;;;;4938615;29;20182;-86
2022/05/10 10:01:48;;;;;;;5.70;2.55;;;22.80;95.50;;;;;;4954188;29;20683;-85
2022/05/10 10:04:21;;;;;;;4.78;2.80;;;22.60;95.60;;;;;;4938086;29;20182;-87
2022/05/10 10:07:11;;;;;;;4.88;2.80;;;22.40;96.50;;;;;;4938176;29;20273;-85
2022/05/10 10:09:40;;;;;;;10.25;3.05;;;22.40;96.70;;;;;;4938071;29;20637;-89
2022/05/10 10:12:17;;;;;;;3.53;2.58;;;22.40;96.50;;;;;;4939207;29;20178;-86
2022/05/10 10:14:48;;;;;;;6.00;2.90;;;22.60;97.30;;;;;;4937760;29;20231;-85
2022/05/10 10:17:33;;;;;;;4.45;2.67;;;22.70;96.00;;;;;;4937276;29;20618;-89
2022/05/10 10:20:20;;;;;;;7.75;2.97;;;22.70;96.50;;;;;;4937908;28;20182;-90
2022/05/10 10:22:55;;;;;;;6.35;3.00;;;22.80;95.40;;;;;;4953819;28;20181;-87
2022/05/10 10:25:46;;;;;;;4.65;2.78;;;22.80;96.10;;;;;;4937607;28;20189;-87
2022/05/10 10:28:34;;;;;;;6.05;3.10;;;22.80;96.20;;;;;;4937728;28;20269;-89
2022/05/10 10:31:13;;;;;;;7.43;3.08;;;22.90;96.20;;;;;;4938806;28;20270;-88
2022/05/10 10:33:45;;;;;;;6.22;2.90;;;23.00;95.50;;;;;;4952877;28;20185;-88
2022/05/10 10:36:22;;;;;;;7.38;2.75;;;23.20;96.10;;;;;;4937739;28;20217;-89
2022/05/10 10:39:07;;;;;;;5.28;2.35;;;23.50;95.50;;;;;;4938507;28;20164;-87
2022/05/10 10:42:10;;;;;;;4.20;2.50;;;23.60;94.80;;;;;;4953765;28;20182;-88
2022/05/10 10:44:39;;;;;;;6.95;2.90;;;23.80;95.00;;;;;;4953750;28;20185;-88
2022/05/10 10:47:16;;;;;;;3.90;2.60;;;24.00;94.80;;;;;;4937471;28;20193;-90
2022/05/10 10:49:58;;;;;;;5.63;2.60;;;24.20;94.00;;;;;;4937095;29;20229;-89
2022/05/10 10:52:26;;;;;;;4.28;2.55;;;24.50;94.90;;;;;;4938302;29;20170;-89
2022/05/10 10:54:51;;;;;;;8.70;2.65;;;24.60;94.60;;;;;;4952858;29;20209;-89
2022/05/10 10:58:14;;;;;;;5.55;2.63;;;24.80;94.40;;;;;;4937268;29;20273;-86
2022/05/10 11:01:07;;;;;;;5.78;2.70;;;24.70;93.00;;;;;;4920499;29;20190;-87
2022/05/10 11:04:00;;;;;;;4.20;2.38;;;24.90;92.90;;;;;;4920560;29;20561;-88
2022/05/10 11:06:27;;;;;;;4.97;2.45;;;25.00;92.50;;;;;;4933854;29;20212;-89
2022/05/10 11:09:04;;;;;;;6.80;2.70;;;24.90;92.30;;;;;;4937026;29;20174;-90
2022/05/10 11:12:06;;;;;;;5.85;3.13;;;24.80;92.20;;;;;;4937178;29;20173;-87
2022/05/10 11:14:44;;;;;;;5.07;2.50;;;24.80;92.20;;;;;;4932830;29;20252;-88
2022/05/10 11:17:09;;;;;;;2.75;2.30;;;24.50;92.60;;;;;;4938135;29;20216;-88
2022/05/10 11:20:02;;;;;;;6.55;2.50;;;24.60;92.70;;;;;;4936742;29;20185;-86
2022/05/10 11:22:41;;;;;;;3.13;2.60;;;24.60;92.00;;;;;;4936916;28;20559;-88
2022/05/10 11:25:16;;;;;;;3.65;2.60;;;24.70;92.00;;;;;;4936846;29;20177;-90
2022/05/10 11:28:02;;;;;;;6.80;2.60;;;24.80;93.20;;;;;;4937945;29;20176;-88
2022/05/10 11:30:58;;;;;;;5.80;2.80;;;25.00;91.60;;;;;;4936891;28;20182;-89
2022/05/10 11:34:03;;;;;;;3.28;2.35;;;25.00;91.60;;;;;;4936649;28;20203;-86
2022/05/10 11:36:38;;;;;;;4.82;2.90;;;25.10;91.90;;;;;;4945876;29;20600;-90
2022/05/10 11:39:37;;;;;;;5.15;2.65;;;25.20;91.60;;;;;;4936506;29;20288;-92
2022/05/10 11:42:20;;;;;;;3.50;2.45;;;25.50;91.20;;;;;;4937071;28;20189;-91
2022/05/10 11:45:01;;;;;;;4.93;2.80;;;25.70;90.60;;;;;;4938004;29;20174;-89
2022/05/10 11:47:36;;;;;;;3.00;2.30;;;25.90;88.80;;;;;;4940754;29;20197;-87
2022/05/10 11:50:23;;;;;;;5.93;2.85;;;25.90;88.90;;;;;;4941597;29;20274;-89
2022/05/10 11:53:13;;;;;;;5.95;2.97;;;25.70;88.70;;;;;;4956573;28;20510;-89
2022/05/10 11:55:59;;;;;;;3.08;2.50;;;25.80;89.50;;;;;;4941445;29;20244;-87
2022/05/10 11:58:28;;;;;;;4.03;2.38;;;25.90;88.00;;;;;;4940473;29;20186;-88
2022/05/10 12:01:02;;;;;;;3.22;2.30;;;25.90;86.30;;;;;;4940429;29;20223;-91
2022/05/10 12:03:42;;;;;;;6.65;2.80;;;26.20;88.70;;;;;;4940290;29;20240;-89
2022/05/10 12:06:23;;;;;;;7.72;2.70;;;26.00;85.50;;;;;;4956410;29;20268;-89
2022/05/10 12:08:56;;;;;;;3.35;2.42;;;25.90;86.90;;;;;;4955929;28;20174;-88
2022/05/10 12:11:28;;;;;;;6.40;2.63;;;25.70;86.30;;;;;;4940339;29;20182;-86
2022/05/10 12:22:14;;;;;;;6.38;2.47;;;24.60;87.30;;;;;;4941142;29;20684;-87
2022/05/10 12:24:44;;;;;;;5.68;2.65;;;24.60;88.50;;;;;;4939985;29;20270;-89
2022/05/10 12:27:11;;;;;;;4.63;2.80;;;24.60;90.00;;;;;;4941111;29;20178;-87
2022/05/10 12:29:40;;;;;;;4.30;2.95;;;24.60;90.00;;;;;;4956043;28;20197;-86
2022/05/10 12:32:19;;;;;;;5.15;2.38;;;24.80;89.60;;;;;;4955395;28;20672;-87
2022/05/10 12:34:58;;;;;;;6.97;3.13;;;24.80;89.30;;;;;;4955706;29;20238;-87
2022/05/10 12:37:30;;;;;;;5.47;2.63;;;24.80;88.80;;;;;;4954830;29;20173;-86
2022/05/10 12:40:08;;;;;;;4.25;2.90;;;25.00;89.80;;;;;;4955213;29;20170;-87
2022/05/10 12:43:01;;;;;;;4.30;2.70;;;25.00;90.40;;;;;;4936924;29;20514;-88
2022/05/10 12:46:01;;;;;;;4.35;2.70;;;25.10;90.00;;;;;;4940814;29;20177;-85
2022/05/10 12:48:33;;;;;;;4.97;2.88;;;25.20;89.60;;;;;;4920611;29;20179;-85
2022/05/10 12:51:26;;;;;;;7.60;2.53;;;25.30;89.30;;;;;;4936369;29;20250;-86
2022/05/10 12:54:17;;;;;;;3.80;2.83;;;25.30;89.60;;;;;;4921420;29;20579;-87
2022/05/10 12:56:44;;;;;;;6.78;2.50;;;25.40;90.00;;;;;;4920037;29;20175;-86
2022/05/10 12:59:26;;;;;;;10.75;3.40;;;25.40;88.00;;;;;;4936274;29;20187;-88
2022/05/10 13:01:54;;;;;;;5.53;2.50;;;25.40;87.40;;;;;;4920303;29;20231;-86
2022/05/10 13:04:21;;;;;;;5.28;2.90;;;25.50;88.30;;;;;;4920371;29;20190;-88
2022/05/10 13:06:57;;;;;;;7.15;3.17;;;25.60;88.10;;;;;;4921417;29;20481;-86
2022/05/10 13:09:49;;;;;;;6.00;3.00;;;25.40;86.60;;;;;;4921078;29;20163;-87
2022/05/10 13:12:24;;;;;;;6.70;3.00;;;25.10;85.70;;;;;;4920343;29;20190;-91
2022/05/10 13:14:57;;;;;;;6.03;2.70;;;24.80;85.80;;;;;;4936154;28;20252;-87
2022/05/10 13:17:29;;;;;;;5.38;3.05;;;24.70;87.60;;;;;;4933904;29;20189;-88
2022/05/10 13:19:59;;;;;;;4.30;2.78;;;24.60;88.00;;;;;;4939058;29;20182;-89
2022/05/10 13:22:26;;;;;;;8.00;2.83;;;24.50;86.10;;;;;;4938912;29;20182;-87
2022/05/10 13:25:00;;;;;;;4.47;2.72;;;24.50;88.40;;;;;;4939041;29;20190;-88
2022/05/10 13:27:34;;;;;;;7.28;3.17;;;24.50;88.90;;;;;;4939392;29;20253;-92
2022/05/10 13:30:24;;;;;;;6.07;2.83;;;24.50;88.50;;;;;;4938783;29;20174;-90
2022/05/10 13:32:52;;;;;;;3.70;2.70;;;24.50;87.90;;;;;;4940002;29;20609;-86
2022/05/10 13:35:23;;;;;;;11.18;3.05;;;24.40;88.00;;;;;;4938798;29;20217;-86